Terminal Aerodrome Forecast
Issued by NWS

Home | Current Version | Previous Version | Text Only | Print | Product List | Glossary On
Versions: 1 2 3 4 5 6 7 8 9 10 11 12 13 14 15 16 17 18 19 20 21 22 23 24 25 26 27 28 29
000
FTUS42 KGSP 301723
TAFHKY
TAF
KHKY 301723Z 3018/0118 19010G15KT P6SM SCT040
     FM010000 15010KT P6SM VCSH BKN020
     FM010500 15010KT P6SM BKN008
     FM011300 16009KT P6SM BKN025 PROB30 0113/0117 4SM -TSRA
      OVC012CB
     FM011700 18012G20KT P6SM OVC020=

USA.gov is the U.S. government's official web portal to all federal, state and local government web resources and services.